Terminal Aerodrome Forecast
Issued by NWS

Home | Current Version | Previous Version | Text Only | Print | Product List | Glossary On
Versions: 1 2 3 4 5 6 7 8 9 10 11 12 13
000
FTUS45 KLKN 310520
TAFTPH
TAF
KTPH 310520Z 3106/0106 36010KT P6SM BKN120
     FM311500 VRB06KT P6SM FEW110
     FM312100 23010G20KT P6SM VCTS SCT110CB
      TEMPO 3122/0102 VRB15G28KT=

USA.gov is the U.S. government's official web portal to all federal, state and local government web resources and services.